sensor_id;sensor_type;location;lat;lon;timestamp;pressure;altitude;pressure_sealevel;temperature;humidity
66880;BME280;53789;51.392;10.234;2023-03-14T00:00:10;95927.38;;;9.13;77.28
66880;BME280;53789;51.392;10.234;2023-03-14T00:00:31;95925.41;;;9.13;77.15
66880;BME280;53789;51.392;10.234;2023-03-14T00:00:52;95930.09;;;9.13;77.42
66880;BME280;53789;51.392;10.234;2023-03-14T00:01:16;95920.28;;;9.12;77.50
66880;BME280;53789;51.392;10.234;2023-03-14T00:01:37;95930.47;;;9.11;76.78
66880;BME280;53789;51.392;10.234;2023-03-14T00:01:57;95934.34;;;9.10;77.70
66880;BME280;53789;51.392;10.234;2023-03-14T00:02:17;95926.91;;;9.11;77.51
66880;BME280;53789;51.392;10.234;2023-03-14T00:02:38;95932.75;;;9.09;77.81
66880;BME280;53789;51.392;10.234;2023-03-14T00:02:58;95933.56;;;9.10;77.45
66880;BME280;53789;51.392;10.234;2023-03-14T00:03:18;95935.06;;;9.07;77.47
66880;BME280;53789;51.392;10.234;2023-03-14T00:03:39;95927.53;;;9.04;77.56
66880;BME280;53789;51.392;10.234;2023-03-14T00:03:59;95932.66;;;9.06;77.24
66880;BME280;53789;51.392;10.234;2023-03-14T00:04:19;95936.53;;;9.05;77.17
66880;BME280;53789;51.392;10.234;2023-03-14T00:04:40;95927.06;;;9.02;77.86
66880;BME280;53789;51.392;10.234;2023-03-14T00:05:00;95927.06;;;9.02;77.55
66880;BME280;53789;51.392;10.234;2023-03-14T00:05:20;95927.06;;;9.02;78.32
66880;BME280;53789;51.392;10.234;2023-03-14T00:05:41;95921.94;;;9.00;77.92
66880;BME280;53789;51.392;10.234;2023-03-14T00:06:03;95915.31;;;9.01;78.08
66880;BME280;53789;51.392;10.234;2023-03-14T00:06:24;95916.81;;;8.99;77.25
66880;BME280;53789;51.392;10.234;2023-03-14T00:06:44;95921.88;;;8.97;77.67
66880;BME280;53789;51.392;10.234;2023-03-14T00:07:04;95912.84;;;8.96;78.22
66880;BME280;53789;51.392;10.234;2023-03-14T00:07:24;95915.59;;;8.96;78.42
66880;BME280;53789;51.392;10.234;2023-03-14T00:07:45;95922.66;;;8.97;77.57
66880;BME280;53789;51.392;10.234;2023-03-14T00:08:05;95913.63;;;8.97;78.38
66880;BME280;53789;51.392;10.234;2023-03-14T00:08:26;95912.03;;;8.96;77.82
66880;BME280;53789;51.392;10.234;2023-03-14T00:08:47;95919.13;;;8.97;77.58
66880;BME280;53789;51.392;10.234;2023-03-14T00:09:07;95912.03;;;8.96;77.93
66880;BME280;53789;51.392;10.234;2023-03-14T00:09:28;95918.34;;;8.96;78.54
66880;BME280;53789;51.392;10.234;2023-03-14T00:09:48;95920.72;;;8.98;78.62
66880;BME280;53789;51.392;10.234;2023-03-14T00:10:12;95916.03;;;8.98;78.61
66880;BME280;53789;51.392;10.234;2023-03-14T00:10:33;95914.44;;;8.97;78.14
66880;BME280;53789;51.392;10.234;2023-03-14T00:10:55;95922.22;;;8.95;77.92
66880;BME280;53789;51.392;10.234;2023-03-14T00:11:20;95911.25;;;8.95;78.41
66880;BME280;53789;51.392;10.234;2023-03-14T00:11:41;95907.38;;;8.96;78.40
66880;BME280;53789;51.392;10.234;2023-03-14T00:12:01;95909.66;;;8.94;78.23
66880;BME280;53789;51.392;10.234;2023-03-14T00:12:22;95899.50;;;8.95;78.53
66880;BME280;53789;51.392;10.234;2023-03-14T00:12:42;95901.88;;;8.96;78.57
66880;BME280;53789;51.392;10.234;2023-03-14T00:13:02;95907.38;;;8.96;78.38
66880;BME280;53789;51.392;10.234;2023-03-14T00:13:23;95905.41;;;8.97;78.22
66880;BME280;53789;51.392;10.234;2023-03-14T00:13:50;95895.59;;;8.96;78.53
66880;BME280;53789;51.392;10.234;2023-03-14T00:14:10;95895.59;;;8.96;77.87
66880;BME280;53789;51.392;10.234;2023-03-14T00:14:31;95900.28;;;8.95;77.63
66880;BME280;53789;51.392;10.234;2023-03-14T00:14:51;95903.03;;;8.95;78.22
66880;BME280;53789;51.392;10.234;2023-03-14T00:15:12;95901.44;;;8.94;78.07
66880;BME280;53789;51.392;10.234;2023-03-14T00:15:34;95901.44;;;8.94;78.84
66880;BME280;53789;51.392;10.234;2023-03-14T00:15:54;95906.13;;;8.94;79.17
66880;BME280;53789;51.392;10.234;2023-03-14T00:16:15;95906.13;;;8.94;78.48
66880;BME280;53789;51.392;10.234;2023-03-14T00:16:35;95902.56;;;8.93;78.36
66880;BME280;53789;51.392;10.234;2023-03-14T00:16:55;95903.38;;;8.94;78.31
66880;BME280;53789;51.392;10.234;2023-03-14T00:17:15;95917.44;;;8.92;78.54
66880;BME280;53789;51.392;10.234;2023-03-14T00:17:36;95909.56;;;8.91;78.82
66880;BME280;53789;51.392;10.234;2023-03-14T00:17:56;95905.66;;;8.92;78.61
66880;BME280;53789;51.392;10.234;2023-03-14T00:18:16;95911.13;;;8.92;78.45
66880;BME280;53789;51.392;10.234;2023-03-14T00:18:37;95910.78;;;8.93;78.71
66880;BME280;53789;51.392;10.234;2023-03-14T00:18:59;95917.09;;;8.94;78.88
66880;BME280;53789;51.392;10.234;2023-03-14T00:19:20;95914.34;;;8.94;78.07
66880;BME280;53789;51.392;10.234;2023-03-14T00:19:40;95913.53;;;8.93;78.85
66880;BME280;53789;51.392;10.234;2023-03-14T00:20:03;95915.50;;;8.93;78.67
66880;BME280;53789;51.392;10.234;2023-03-14T00:20:24;95922.94;;;8.92;78.80
66880;BME280;53789;51.392;10.234;2023-03-14T00:20:44;95927.25;;;8.93;78.87
66880;BME280;53789;51.392;10.234;2023-03-14T00:21:07;95920.19;;;8.92;78.51
66880;BME280;53789;51.392;10.234;2023-03-14T00:21:28;95929.97;;;8.93;78.37
66880;BME280;53789;51.392;10.234;2023-03-14T00:21:48;95923.72;;;8.93;78.09
66880;BME280;53789;51.392;10.234;2023-03-14T00:22:08;95936.63;;;8.92;78.74
66880;BME280;53789;51.392;10.234;2023-03-14T00:22:28;95926.00;;;8.91;78.50
66880;BME280;53789;51.392;10.234;2023-03-14T00:22:49;95934.69;;;8.93;79.06
66880;BME280;53789;51.392;10.234;2023-03-14T00:23:09;95946.00;;;8.91;78.45
66880;BME280;53789;51.392;10.234;2023-03-14T00:23:31;95935.38;;;8.90;78.21
66880;BME280;53789;51.392;10.234;2023-03-14T00:23:52;95942.00;;;8.89;79.08
66880;BME280;53789;51.392;10.234;2023-03-14T00:24:13;95930.25;;;8.88;78.84
66880;BME280;53789;51.392;10.234;2023-03-14T00:24:33;95943.97;;;8.88;78.74
66880;BME280;53789;51.392;10.234;2023-03-14T00:24:54;95934.94;;;8.88;78.14
66880;BME280;53789;51.392;10.234;2023-03-14T00:25:14;95938.47;;;8.88;77.95
66880;BME280;53789;51.392;10.234;2023-03-14T00:25:34;95943.97;;;8.88;78.99
66880;BME280;53789;51.392;10.234;2023-03-14T00:26:02;95935.72;;;8.88;78.19
66880;BME280;53789;51.392;10.234;2023-03-14T00:26:22;95943.16;;;8.88;78.97
66880;BME280;53789;51.392;10.234;2023-03-14T00:26:43;95949.78;;;8.87;78.89
66880;BME280;53789;51.392;10.234;2023-03-14T00:27:03;95945.44;;;8.85;78.13
66880;BME280;53789;51.392;10.234;2023-03-14T00:27:23;95947.41;;;8.85;78.39
66880;BME280;53789;51.392;10.234;2023-03-14T00:27:44;95950.94;;;8.85;78.56
66880;BME280;53789;51.392;10.234;2023-03-14T00:28:04;95950.16;;;8.85;78.11
66880;BME280;53789;51.392;10.234;2023-03-14T00:28:24;95961.09;;;8.85;78.27
66880;BME280;53789;51.392;10.234;2023-03-14T00:28:45;95952.88;;;8.85;78.11
66880;BME280;53789;51.392;10.234;2023-03-14T00:29:05;95960.75;;;8.87;78.22
66880;BME280;53789;51.392;10.234;2023-03-14T00:29:26;95957.22;;;8.86;78.55
66880;BME280;53789;51.392;10.234;2023-03-14T00:29:46;95958.81;;;8.87;78.32
66880;BME280;53789;51.392;10.234;2023-03-14T00:30:07;95956.06;;;8.87;78.26
66880;BME280;53789;51.392;10.234;2023-03-14T00:30:28;95961.53;;;8.87;78.90
66880;BME280;53789;51.392;10.234;2023-03-14T00:30:48;95975.25;;;8.87;79.07
66880;BME280;53789;51.392;10.234;2023-03-14T00:31:12;95968.63;;;8.88;79.38
66880;BME280;53789;51.392;10.234;2023-03-14T00:31:32;95967.84;;;8.88;79.11
66880;BME280;53789;51.392;10.234;2023-03-14T00:31:52;95965.09;;;8.88;78.89
66880;BME280;53789;51.392;10.234;2023-03-14T00:32:13;95976.06;;;8.88;78.70
66880;BME280;53789;51.392;10.234;2023-03-14T00:32:33;95972.16;;;8.89;78.56
66880;BME280;53789;51.392;10.234;2023-03-14T00:32:53;95983.13;;;8.89;79.12
66880;BME280;53789;51.392;10.234;2023-03-14T00:33:14;95981.97;;;8.90;78.74
66880;BME280;53789;51.392;10.234;2023-03-14T00:33:35;95975.72;;;8.89;78.54
66880;BME280;53789;51.392;10.234;2023-03-14T00:33:55;95986.69;;;8.89;78.10
66880;BME280;53789;51.392;10.234;2023-03-14T00:34:16;95995.59;;;8.86;79.17
66880;BME280;53789;51.392;10.234;2023-03-14T00:34:36;95993.22;;;8.84;78.49
66880;BME280;53789;51.392;10.234;2023-03-14T00:34:57;95988.53;;;8.85;79.36
66880;BME280;53789;51.392;10.234;2023-03-14T00:35:17;96006.56;;;8.86;78.08
66880;BME280;53789;51.392;10.234;2023-03-14T00:35:37;96001.09;;;8.86;78.29
66880;BME280;53789;51.392;10.234;2023-03-14T00:36:00;96003.84;;;8.86;78.99
66880;BME280;53789;51.392;10.234;2023-03-14T00:36:21;95999.50;;;8.85;79.32
66880;BME280;53789;51.392;10.234;2023-03-14T00:36:42;95999.84;;;8.83;78.79
66880;BME280;53789;51.392;10.234;2023-03-14T00:37:02;95997.88;;;8.84;78.87
66880;BME280;53789;51.392;10.234;2023-03-14T00:37:22;95999.06;;;8.83;78.99
66880;BME280;53789;51.392;10.234;2023-03-14T00:37:43;96008.06;;;8.83;78.46
66880;BME280;53789;51.392;10.234;2023-03-14T00:38:03;96000.63;;;8.84;79.17
66880;BME280;53789;51.392;10.234;2023-03-14T00:38:23;95998.22;;;8.82;79.10
66880;BME280;53789;51.392;10.234;2023-03-14T00:38:45;95998.59;;;8.81;78.17
66880;BME280;53789;51.392;10.234;2023-03-14T00:39:06;96000.19;;;8.82;78.10
66880;BME280;53789;51.392;10.234;2023-03-14T00:39:26;96000.19;;;8.82;78.23
66880;BME280;53789;51.392;10.234;2023-03-14T00:39:46;95991.97;;;8.82;78.40
66880;BME280;53789;51.392;10.234;2023-03-14T00:40:07;95992.75;;;8.82;78.97
66880;BME280;53789;51.392;10.234;2023-03-14T00:40:28;95995.50;;;8.82;79.36
66880;BME280;53789;51.392;10.234;2023-03-14T00:40:48;96005.31;;;8.83;79.42
66880;BME280;53789;51.392;10.234;2023-03-14T00:41:15;96010.00;;;8.83;78.29
66880;BME280;53789;51.392;10.234;2023-03-14T00:41:35;95998.22;;;8.82;78.50
66880;BME280;53789;51.392;10.234;2023-03-14T00:41:55;96006.47;;;8.82;78.29
66880;BME280;53789;51.392;10.234;2023-03-14T00:42:16;96005.66;;;8.82;78.07
66880;BME280;53789;51.392;10.234;2023-03-14T00:42:36;96006.38;;;8.79;78.90
66880;BME280;53789;51.392;10.234;2023-03-14T00:42:56;96014.25;;;8.80;78.50
66880;BME280;53789;51.392;10.234;2023-03-14T00:43:17;96027.59;;;8.82;79.21
66880;BME280;53789;51.392;10.234;2023-03-14T00:43:38;96021.66;;;8.80;79.25
66880;BME280;53789;51.392;10.234;2023-03-14T00:43:58;96028.28;;;8.79;78.99
66880;BME280;53789;51.392;10.234;2023-03-14T00:44:19;96027.47;;;8.78;78.27
66880;BME280;53789;51.392;10.234;2023-03-14T00:44:39;96030.56;;;8.77;78.40
66880;BME280;53789;51.392;10.234;2023-03-14T00:44:59;96041.53;;;8.77;79.31
66880;BME280;53789;51.392;10.234;2023-03-14T00:45:20;96043.50;;;8.76;79.29
66880;BME280;53789;51.392;10.234;2023-03-14T00:45:40;96040.75;;;8.76;78.91
66880;BME280;53789;51.392;10.234;2023-03-14T00:46:01;96041.53;;;8.77;78.76
66880;BME280;53789;51.392;10.234;2023-03-14T00:46:21;96055.59;;;8.75;78.08
66880;BME280;53789;51.392;10.234;2023-03-14T00:46:41;96056.41;;;8.76;79.09
66880;BME280;53789;51.392;10.234;2023-03-14T00:47:02;96055.25;;;8.77;79.15
66880;BME280;53789;51.392;10.234;2023-03-14T00:47:22;96049.75;;;8.77;78.50
66880;BME280;53789;51.392;10.234;2023-03-14T00:47:42;96068.59;;;8.78;79.30
66880;BME280;53789;51.392;10.234;2023-03-14T00:48:03;96051.38;;;8.78;78.87
66880;BME280;53789;51.392;10.234;2023-03-14T00:48:23;96050.22;;;8.79;78.32
66880;BME280;53789;51.392;10.234;2023-03-14T00:48:45;96039.25;;;8.79;78.06
66880;BME280;53789;51.392;10.234;2023-03-14T00:49:06;96042.00;;;8.79;78.65
66880;BME280;53789;51.392;10.234;2023-03-14T00:49:26;96041.66;;;8.80;78.52
66880;BME280;53789;51.392;10.234;2023-03-14T00:49:47;96033.44;;;8.80;78.58
66880;BME280;53789;51.392;10.234;2023-03-14T00:50:07;96031.47;;;8.81;78.16
66880;BME280;53789;51.392;10.234;2023-03-14T00:50:28;96019.72;;;8.80;78.80
66880;BME280;53789;51.392;10.234;2023-03-14T00:50:48;96020.16;;;8.82;78.13
66880;BME280;53789;51.392;10.234;2023-03-14T00:51:08;96011.94;;;8.82;78.41
66880;BME280;53789;51.392;10.234;2023-03-14T00:51:29;96014.69;;;8.82;77.59
66880;BME280;53789;51.392;10.234;2023-03-14T00:51:49;96025.28;;;8.84;77.87
66880;BME280;53789;51.392;10.234;2023-03-14T00:52:09;96023.72;;;8.83;77.94
66880;BME280;53789;51.392;10.234;2023-03-14T00:52:30;96013.53;;;8.83;77.40
66880;BME280;53789;51.392;10.234;2023-03-14T00:52:50;96016.63;;;8.82;78.16
66880;BME280;53789;51.392;10.234;2023-03-14T00:53:11;96021.75;;;8.83;78.11
66880;BME280;53789;51.392;10.234;2023-03-14T00:53:35;96024.84;;;8.82;77.89
66880;BME280;53789;51.392;10.234;2023-03-14T00:53:56;96023.25;;;8.81;78.72
66880;BME280;53789;51.392;10.234;2023-03-14T00:54:18;96050.66;;;8.81;78.27
66880;BME280;53789;51.392;10.234;2023-03-14T00:54:38;96041.66;;;8.80;77.73
66880;BME280;53789;51.392;10.234;2023-03-14T00:54:58;96032.25;;;8.81;78.25
66880;BME280;53789;51.392;10.234;2023-03-14T00:55:20;96041.31;;;8.82;77.69
66880;BME280;53789;51.392;10.234;2023-03-14T00:55:42;96042.91;;;8.83;78.67
66880;BME280;53789;51.392;10.234;2023-03-14T00:56:05;96046.44;;;8.83;78.25
66880;BME280;53789;51.392;10.234;2023-03-14T00:56:26;96044.03;;;8.82;77.43
66880;BME280;53789;51.392;10.234;2023-03-14T00:56:46;96053.41;;;8.81;77.28
66880;BME280;53789;51.392;10.234;2023-03-14T00:57:07;96040.84;;;8.80;78.16
66880;BME280;53789;51.392;10.234;2023-03-14T00:57:27;96044.84;;;8.82;78.50
66880;BME280;53789;51.392;10.234;2023-03-14T00:57:48;96039.34;;;8.82;78.03
66880;BME280;53789;51.392;10.234;2023-03-14T00:58:09;96035.81;;;8.82;77.70
66880;BME280;53789;51.392;10.234;2023-03-14T00:58:30;96036.97;;;8.81;78.22
66880;BME280;53789;51.392;10.234;2023-03-14T00:58:54;96042.09;;;8.82;77.67
66880;BME280;53789;51.392;10.234;2023-03-14T00:59:15;96031.13;;;8.82;78.10
66880;BME280;53789;51.392;10.234;2023-03-14T00:59:36;96034.69;;;8.83;77.39
66880;BME280;53789;51.392;10.234;2023-03-14T00:59:56;96038.56;;;8.82;77.39
66880;BME280;53789;51.392;10.234;2023-03-14T01:00:17;96030.34;;;8.82;77.16
66880;BME280;53789;51.392;10.234;2023-03-14T01:00:37;96026.47;;;8.83;77.81
66880;BME280;53789;51.392;10.234;2023-03-14T01:00:58;96039.34;;;8.82;77.79
66880;BME280;53789;51.392;10.234;2023-03-14T01:01:18;96028.38;;;8.82;77.13
66880;BME280;53789;51.392;10.234;2023-03-14T01:01:39;96035.47;;;8.83;77.74
66880;BME280;53789;51.392;10.234;2023-03-14T01:01:59;96024.50;;;8.83;77.60
66880;BME280;53789;51.392;10.234;2023-03-14T01:02:20;96019.03;;;8.83;78.52
66880;BME280;53789;51.392;10.234;2023-03-14T01:02:40;96016.63;;;8.82;78.33
66880;BME280;53789;51.392;10.234;2023-03-14T01:03:00;96020.16;;;8.82;78.19
66880;BME280;53789;51.392;10.234;2023-03-14T01:03:21;96019.03;;;8.83;77.87
66880;BME280;53789;51.392;10.234;2023-03-14T01:03:41;96020.97;;;8.83;77.28
66880;BME280;53789;51.392;10.234;2023-03-14T01:04:01;96021.75;;;8.83;77.64
66880;BME280;53789;51.392;10.234;2023-03-14T01:04:22;96025.66;;;8.82;78.15
66880;BME280;53789;51.392;10.234;2023-03-14T01:04:42;96012.75;;;8.83;76.91
66880;BME280;53789;51.392;10.234;2023-03-14T01:05:02;96008.06;;;8.83;77.43
66880;BME280;53789;51.392;10.234;2023-03-14T01:05:23;96004.84;;;8.81;77.59
66880;BME280;53789;51.392;10.234;2023-03-14T01:05:43;96019.03;;;8.83;77.36
66880;BME280;53789;51.392;10.234;2023-03-14T01:06:21;96022.91;;;8.82;77.55
66880;BME280;53789;51.392;10.234;2023-03-14T01:06:41;96013.44;;;8.80;77.84
66880;BME280;53789;51.392;10.234;2023-03-14T01:07:02;96005.19;;;8.80;78.25
66880;BME280;53789;51.392;10.234;2023-03-14T01:07:22;96011.50;;;8.80;78.14
66880;BME280;53789;51.392;10.234;2023-03-14T01:07:42;96020.50;;;8.81;77.71
66880;BME280;53789;51.392;10.234;2023-03-14T01:08:03;96002.09;;;8.81;77.99
66880;BME280;53789;51.392;10.234;2023-03-14T01:08:24;96014.25;;;8.80;77.36
66880;BME280;53789;51.392;10.234;2023-03-14T01:08:45;96014.25;;;8.80;77.82
66880;BME280;53789;51.392;10.234;2023-03-14T01:09:05;96008.75;;;8.80;77.84
66880;BME280;53789;51.392;10.234;2023-03-14T01:09:26;95997.78;;;8.80;78.17
66880;BME280;53789;51.392;10.234;2023-03-14T01:09:46;96005.19;;;8.80;77.82
66880;BME280;53789;51.392;10.234;2023-03-14T01:10:07;96005.56;;;8.78;77.47
66880;BME280;53789;51.392;10.234;2023-03-14T01:10:28;96010.25;;;8.78;77.79
66880;BME280;53789;51.392;10.234;2023-03-14T01:10:49;96008.66;;;8.77;78.36
66880;BME280;53789;51.392;10.234;2023-03-14T01:11:16;96018.81;;;8.76;77.66
66880;BME280;53789;51.392;10.234;2023-03-14T01:11:37;96007.84;;;8.76;78.15
66880;BME280;53789;51.392;10.234;2023-03-14T01:11:57;95999.28;;;8.78;77.67
66880;BME280;53789;51.392;10.234;2023-03-14T01:12:17;96008.28;;;8.78;77.15
66880;BME280;53789;51.392;10.234;2023-03-14T01:12:37;96000.41;;;8.77;78.33
66880;BME280;53789;51.392;10.234;2023-03-14T01:12:58;95998.84;;;8.76;77.87
66880;BME280;53789;51.392;10.234;2023-03-14T01:13:18;96004.78;;;8.78;77.66
66880;BME280;53789;51.392;10.234;2023-03-14T01:13:39;95997.69;;;8.77;78.07
66880;BME280;53789;51.392;10.234;2023-03-14T01:14:00;95997.69;;;8.77;77.86
66880;BME280;53789;51.392;10.234;2023-03-14T01:14:21;95989.09;;;8.78;77.90
66880;BME280;53789;51.392;10.234;2023-03-14T01:14:41;95991.06;;;8.78;77.54
66880;BME280;53789;51.392;10.234;2023-03-14T01:15:02;95989.09;;;8.78;76.98
66880;BME280;53789;51.392;10.234;2023-03-14T01:15:22;95992.66;;;8.79;77.59
66880;BME280;53789;51.392;10.234;2023-03-14T01:15:43;95989.09;;;8.78;77.29
66880;BME280;53789;51.392;10.234;2023-03-14T01:16:05;95995.28;;;8.75;77.30
66880;BME280;53789;51.392;10.234;2023-03-14T01:16:28;95994.16;;;8.76;78.02
66880;BME280;53789;51.392;10.234;2023-03-14T01:16:48;95991.41;;;8.76;77.61
66880;BME280;53789;51.392;10.234;2023-03-14T01:17:09;96001.25;;;8.77;77.07
66880;BME280;53789;51.392;10.234;2023-03-14T01:17:29;95990.72;;;8.79;76.82
66880;BME280;53789;51.392;10.234;2023-03-14T01:17:49;95992.19;;;8.77;78.02
66880;BME280;53789;51.392;10.234;2023-03-14T01:18:10;95987.19;;;8.79;77.56
66880;BME280;53789;51.392;10.234;2023-03-14T01:18:30;95993.81;;;8.78;77.99
66880;BME280;53789;51.392;10.234;2023-03-14T01:18:51;95983.97;;;8.77;77.57
66880;BME280;53789;51.392;10.234;2023-03-14T01:19:12;95988.66;;;8.76;77.93
66880;BME280;53789;51.392;10.234;2023-03-14T01:19:32;95990.63;;;8.76;78.29
66880;BME280;53789;51.392;10.234;2023-03-14T01:19:52;95983.97;;;8.77;77.50
66880;BME280;53789;51.392;10.234;2023-03-14T01:20:14;95984.31;;;8.75;78.20
66880;BME280;53789;51.392;10.234;2023-03-14T01:20:36;95982.41;;;8.76;77.89
66880;BME280;53789;51.392;10.234;2023-03-14T01:20:57;95983.53;;;8.75;78.16
66880;BME280;53789;51.392;10.234;2023-03-14T01:21:27;95989.81;;;8.75;77.86
66880;BME280;53789;51.392;10.234;2023-03-14T01:21:48;95985.84;;;8.73;78.16
66880;BME280;53789;51.392;10.234;2023-03-14T01:22:08;95982.63;;;8.71;77.32
66880;BME280;53789;51.392;10.234;2023-03-14T01:22:29;95977.50;;;8.69;77.01
66880;BME280;53789;51.392;10.234;2023-03-14T01:22:49;95976.38;;;8.70;77.82
66880;BME280;53789;51.392;10.234;2023-03-14T01:23:09;95975.56;;;8.70;77.76
66880;BME280;53789;51.392;10.234;2023-03-14T01:23:29;95978.75;;;8.72;77.46
66880;BME280;53789;51.392;10.234;2023-03-14T01:23:53;95976.81;;;8.72;78.12
66880;BME280;53789;51.392;10.234;2023-03-14T01:24:14;95979.56;;;8.72;77.53
66880;BME280;53789;51.392;10.234;2023-03-14T01:24:34;95974.41;;;8.71;77.55
66880;BME280;53789;51.392;10.234;2023-03-14T01:24:56;95982.63;;;8.71;77.04
66880;BME280;53789;51.392;10.234;2023-03-14T01:25:17;95978.28;;;8.70;78.19
66880;BME280;53789;51.392;10.234;2023-03-14T01:25:41;95964.59;;;8.70;78.03
66880;BME280;53789;51.392;10.234;2023-03-14T01:26:01;95976.38;;;8.70;78.48
66880;BME280;53789;51.392;10.234;2023-03-14T01:26:24;95970.06;;;8.70;78.03
66880;BME280;53789;51.392;10.234;2023-03-14T01:26:45;95970.53;;;8.72;77.78
66880;BME280;53789;51.392;10.234;2023-03-14T01:27:05;95970.88;;;8.70;77.14
66880;BME280;53789;51.392;10.234;2023-03-14T01:27:25;95964.59;;;8.70;78.36
66880;BME280;53789;51.392;10.234;2023-03-14T01:27:46;95970.88;;;8.70;77.93
66880;BME280;53789;51.392;10.234;2023-03-14T01:28:06;95979.13;;;8.70;78.28
66880;BME280;53789;51.392;10.234;2023-03-14T01:28:26;95979.91;;;8.71;77.01
66880;BME280;53789;51.392;10.234;2023-03-14T01:28:48;95966.13;;;8.67;78.38
66880;BME280;53789;51.392;10.234;2023-03-14T01:29:09;95966.53;;;8.69;78.36
66880;BME280;53789;51.392;10.234;2023-03-14T01:29:29;95964.59;;;8.70;78.49
66880;BME280;53789;51.392;10.234;2023-03-14T01:29:50;95968.16;;;8.70;77.66
66880;BME280;53789;51.392;10.234;2023-03-14T01:30:11;95974.78;;;8.69;78.02
66880;BME280;53789;51.392;10.234;2023-03-14T01:30:32;95973.16;;;8.68;78.20
66880;BME280;53789;51.392;10.234;2023-03-14T01:30:52;95973.50;;;8.66;77.42
66880;BME280;53789;51.392;10.234;2023-03-14T01:31:13;95970.44;;;8.68;77.71
66880;BME280;53789;51.392;10.234;2023-03-14T01:31:33;95975.13;;;8.67;77.33
66880;BME280;53789;51.392;10.234;2023-03-14T01:31:54;95975.13;;;8.67;78.37
66880;BME280;53789;51.392;10.234;2023-03-14T01:32:14;95969.63;;;8.67;77.76
66880;BME280;53789;51.392;10.234;2023-03-14T01:32:34;95965.28;;;8.66;78.32
66880;BME280;53789;51.392;10.234;2023-03-14T01:32:55;95975.47;;;8.66;78.45
66880;BME280;53789;51.392;10.234;2023-03-14T01:33:15;95973.50;;;8.66;78.09
66880;BME280;53789;51.392;10.234;2023-03-14T01:33:36;95966.91;;;8.67;77.50
66880;BME280;53789;51.392;10.234;2023-03-14T01:33:56;95974.78;;;8.69;78.47
66880;BME280;53789;51.392;10.234;2023-03-14T01:34:16;95970.78;;;8.66;77.57
66880;BME280;53789;51.392;10.234;2023-03-14T01:34:37;95964.50;;;8.66;77.23
66880;BME280;53789;51.392;10.234;2023-03-14T01:34:57;95960.97;;;8.65;77.38
66880;BME280;53789;51.392;10.234;2023-03-14T01:35:17;95957.44;;;8.65;77.86
66880;BME280;53789;51.392;10.234;2023-03-14T01:35:37;95953.91;;;8.64;77.53
66880;BME280;53789;51.392;10.234;2023-03-14T01:35:58;95960.16;;;8.65;77.98
66880;BME280;53789;51.392;10.234;2023-03-14T01:36:18;95955.94;;;8.67;78.22
66880;BME280;53789;51.392;10.234;2023-03-14T01:36:39;95960.63;;;8.67;77.70
66880;BME280;53789;51.392;10.234;2023-03-14T01:36:59;95957.88;;;8.67;77.83
66880;BME280;53789;51.392;10.234;2023-03-14T01:37:19;95959.81;;;8.66;77.58
66880;BME280;53789;51.392;10.234;2023-03-14T01:37:39;95959.03;;;8.66;77.15
66880;BME280;53789;51.392;10.234;2023-03-14T01:38:00;95960.16;;;8.65;77.60
66880;BME280;53789;51.392;10.234;2023-03-14T01:38:20;95957.78;;;8.63;77.44
66880;BME280;53789;51.392;10.234;2023-03-14T01:38:41;95952.28;;;8.63;77.44
66880;BME280;53789;51.392;10.234;2023-03-14T01:39:02;95953.91;;;8.64;77.70
66880;BME280;53789;51.392;10.234;2023-03-14T01:39:22;95955.84;;;8.64;77.72
66880;BME280;53789;51.392;10.234;2023-03-14T01:39:42;95966.47;;;8.65;78.45
66880;BME280;53789;51.392;10.234;2023-03-14T01:40:03;95956.28;;;8.66;77.23
66880;BME280;53789;51.392;10.234;2023-03-14T01:40:24;95967.16;;;8.62;76.99
66880;BME280;53789;51.392;10.234;2023-03-14T01:40:44;95960.50;;;8.63;77.54
66880;BME280;53789;51.392;10.234;2023-03-14T01:41:06;95961.34;;;8.64;77.10
66880;BME280;53789;51.392;10.234;2023-03-14T01:41:26;95955.03;;;8.63;77.84
66880;BME280;53789;51.392;10.234;2023-03-14T01:41:47;95944.88;;;8.64;77.46
66880;BME280;53789;51.392;10.234;2023-03-14T01:42:07;95950.03;;;8.65;77.15
66880;BME280;53789;51.392;10.234;2023-03-14T01:42:27;95945.69;;;8.64;78.25
66880;BME280;53789;51.392;10.234;2023-03-14T01:42:56;95940.53;;;8.63;77.03
66880;BME280;53789;51.392;10.234;2023-03-14T01:43:18;95939.41;;;8.64;77.85
66880;BME280;53789;51.392;10.234;2023-03-14T01:43:39;95937.47;;;8.64;77.90
66880;BME280;53789;51.392;10.234;2023-03-14T01:43:59;95940.91;;;8.61;77.16
66880;BME280;53789;51.392;10.234;2023-03-14T01:44:20;95940.47;;;8.59;77.61
66880;BME280;53789;51.392;10.234;2023-03-14T01:46:46;95947.06;;;8.58;77.53
66880;BME280;53789;51.392;10.234;2023-03-14T01:47:07;95947.06;;;8.58;77.66
66880;BME280;53789;51.392;10.234;2023-03-14T01:47:27;95954.47;;;8.58;78.38
66880;BME280;53789;51.392;10.234;2023-03-14T01:47:47;95946.25;;;8.58;77.31
66880;BME280;53789;51.392;10.234;2023-03-14T01:48:07;95945.13;;;8.59;77.18
66880;BME280;53789;51.392;10.234;2023-03-14T01:48:49;95939.22;;;8.57;77.64
66880;BME280;53789;51.392;10.234;2023-03-14T01:49:34;95947.78;;;8.55;77.05
66880;BME280;53789;51.392;10.234;2023-03-14T01:49:59;95943.44;;;8.54;78.11
66880;BME280;53789;51.392;10.234;2023-03-14T01:50:21;95940.69;;;8.54;77.97
66880;BME280;53789;51.392;10.234;2023-03-14T01:50:42;95942.66;;;8.54;78.02
66880;BME280;53789;51.392;10.234;2023-03-14T01:51:11;95936.34;;;8.53;77.99
66880;BME280;53789;51.392;10.234;2023-03-14T01:52:43;95933.63;;;8.53;77.81
66880;BME280;53789;51.392;10.234;2023-03-14T01:53:04;95942.31;;;8.55;77.16
66880;BME280;53789;51.392;10.234;2023-03-14T01:53:24;95941.47;;;8.55;77.87
66880;BME280;53789;51.392;10.234;2023-03-14T01:53:48;95946.97;;;8.55;78.35
66880;BME280;53789;51.392;10.234;2023-03-14T01:54:47;95940.25;;;8.52;77.95
66880;BME280;53789;51.392;10.234;2023-03-14T01:55:16;95930.44;;;8.51;77.12
66880;BME280;53789;51.392;10.234;2023-03-14T01:55:37;95937.53;;;8.52;78.07